sensor_id;sensor_type;location;lat;lon;timestamp;pressure;altitude;pressure_sealevel;temperature;humidity
41254;BME280;26987;59.928;30.306;2023-02-13T00:00:35;101070.22;;;0.53;100.00
41254;BME280;26987;59.928;30.306;2023-02-13T00:03:04;101033.44;;;0.30;100.00
41254;BME280;26987;59.928;30.306;2023-02-13T00:05:32;101072.72;;;0.55;100.00
41254;BME280;26987;59.928;30.306;2023-02-13T00:08:00;101066.63;;;0.54;100.00
41254;BME280;26987;59.928;30.306;2023-02-13T00:10:29;101073.44;;;0.57;100.00
41254;BME280;26987;59.928;30.306;2023-02-13T00:12:57;101069.81;;;0.58;100.00
41254;BME280;26987;59.928;30.306;2023-02-13T00:15:25;101066.50;;;0.56;100.00
41254;BME280;26987;59.928;30.306;2023-02-13T00:17:53;101056.88;;;0.55;100.00
41254;BME280;26987;59.928;30.306;2023-02-13T00:20:22;101077.59;;;0.59;100.00
41254;BME280;26987;59.928;30.306;2023-02-13T00:22:50;101063.44;;;0.60;100.00
41254;BME280;26987;59.928;30.306;2023-02-13T00:25:18;101068.97;;;0.57;100.00
41254;BME280;26987;59.928;30.306;2023-02-13T00:27:49;101066.06;;;0.60;100.00
41254;BME280;26987;59.928;30.306;2023-02-13T00:30:17;101061.75;;;0.59;100.00
41254;BME280;26987;59.928;30.306;2023-02-13T00:32:45;101059.38;;;0.56;100.00
41254;BME280;26987;59.928;30.306;2023-02-13T00:35:13;101054.81;;;0.58;100.00
41254;BME280;26987;59.928;30.306;2023-02-13T00:37:41;101058.41;;;0.57;100.00
41254;BME280;26987;59.928;30.306;2023-02-13T00:40:10;101063.97;;;0.54;100.00
41254;BME280;26987;59.928;30.306;2023-02-13T00:42:38;101058.38;;;0.47;100.00
41254;BME280;26987;59.928;30.306;2023-02-13T00:45:08;101052.81;;;0.41;100.00
41254;BME280;26987;59.928;30.306;2023-02-13T00:47:36;101064.56;;;0.36;100.00
41254;BME280;26987;59.928;30.306;2023-02-13T00:50:05;101060.78;;;0.29;100.00
41254;BME280;26987;59.928;30.306;2023-02-13T00:52:33;101047.44;;;0.21;100.00
41254;BME280;26987;59.928;30.306;2023-02-13T00:55:00;100990.88;;;-0.18;100.00
41254;BME280;26987;59.928;30.306;2023-02-13T00:57:28;101044.59;;;0.12;100.00
41254;BME280;26987;59.928;30.306;2023-02-13T00:59:57;101037.84;;;0.20;100.00
41254;BME280;26987;59.928;30.306;2023-02-13T01:02:26;101021.31;;;0.18;100.00
41254;BME280;26987;59.928;30.306;2023-02-13T01:04:54;101022.56;;;0.45;100.00
41254;BME280;26987;59.928;30.306;2023-02-13T01:07:24;101028.13;;;0.52;100.00
41254;BME280;26987;59.928;30.306;2023-02-13T01:09:52;101033.84;;;0.57;100.00
41254;BME280;26987;59.928;30.306;2023-02-13T01:12:19;101034.66;;;0.57;100.00
41254;BME280;26987;59.928;30.306;2023-02-13T01:14:47;101040.91;;;0.56;100.00
41254;BME280;26987;59.928;30.306;2023-02-13T01:17:17;101028.25;;;0.50;100.00
41254;BME280;26987;59.928;30.306;2023-02-13T01:19:46;101026.00;;;0.45;100.00
41254;BME280;26987;59.928;30.306;2023-02-13T01:22:15;101033.25;;;0.43;100.00
41254;BME280;26987;59.928;30.306;2023-02-13T01:24:43;101033.38;;;0.42;100.00
41254;BME280;26987;59.928;30.306;2023-02-13T01:27:10;101019.97;;;0.33;100.00
41254;BME280;26987;59.928;30.306;2023-02-13T01:29:38;101030.81;;;0.30;100.00
41254;BME280;26987;59.928;30.306;2023-02-13T01:32:06;101014.09;;;0.20;100.00
41254;BME280;26987;59.928;30.306;2023-02-13T01:34:34;101025.88;;;0.16;100.00
41254;BME280;26987;59.928;30.306;2023-02-13T01:37:05;101001.34;;;-0.06;100.00
41254;BME280;26987;59.928;30.306;2023-02-13T01:39:33;101024.41;;;0.02;100.00
41254;BME280;26987;59.928;30.306;2023-02-13T01:42:00;101017.34;;;0.02;100.00
41254;BME280;26987;59.928;30.306;2023-02-13T01:44:48;101019.97;;;0.02;100.00
41254;BME280;26987;59.928;30.306;2023-02-13T01:47:21;101019.69;;;-0.05;100.00
41254;BME280;26987;59.928;30.306;2023-02-13T01:49:58;101004.00;;;-0.06;100.00
41254;BME280;26987;59.928;30.306;2023-02-13T01:52:29;101008.69;;;-0.10;100.00
41254;BME280;26987;59.928;30.306;2023-02-13T01:54:58;100969.41;;;-0.34;100.00
41254;BME280;26987;59.928;30.306;2023-02-13T01:57:27;101022.25;;;-0.15;100.00
41254;BME280;26987;59.928;30.306;2023-02-13T02:00:00;101010.88;;;-0.15;100.00
41254;BME280;26987;59.928;30.306;2023-02-13T02:02:33;101014.47;;;-0.16;100.00
41254;BME280;26987;59.928;30.306;2023-02-13T02:05:02;101002.19;;;-0.27;100.00
41254;BME280;26987;59.928;30.306;2023-02-13T02:07:33;101010.28;;;-0.19;100.00
41254;BME280;26987;59.928;30.306;2023-02-13T02:10:08;101007.91;;;-0.22;100.00
41254;BME280;26987;59.928;30.306;2023-02-13T02:12:42;101007.44;;;-0.27;100.00
41254;BME280;26987;59.928;30.306;2023-02-13T02:15:13;101009.13;;;-0.26;100.00
41254;BME280;26987;59.928;30.306;2023-02-13T02:17:41;100994.44;;;-0.29;100.00
41254;BME280;26987;59.928;30.306;2023-02-13T02:20:19;100989.97;;;-0.28;100.00
41254;BME280;26987;59.928;30.306;2023-02-13T02:23:16;100987.47;;;-0.30;100.00
41254;BME280;26987;59.928;30.306;2023-02-13T02:26:20;100997.88;;;-0.28;100.00
41254;BME280;26987;59.928;30.306;2023-02-13T02:29:12;100980.19;;;-0.38;100.00
41254;BME280;26987;59.928;30.306;2023-02-13T02:32:09;100997.44;;;-0.33;100.00
41254;BME280;26987;59.928;30.306;2023-02-13T02:34:47;100999.34;;;-0.35;100.00
41254;BME280;26987;59.928;30.306;2023-02-13T02:37:29;100999.09;;;-0.32;100.00
41254;BME280;26987;59.928;30.306;2023-02-13T02:40:09;100994.28;;;-0.27;100.00
41254;BME280;26987;59.928;30.306;2023-02-13T02:42:49;100987.94;;;-0.24;100.00
41254;BME280;26987;59.928;30.306;2023-02-13T02:45:27;101003.63;;;-0.23;100.00
41254;BME280;26987;59.928;30.306;2023-02-13T02:48:02;100991.78;;;-0.29;100.00
41254;BME280;26987;59.928;30.306;2023-02-13T02:50:53;101003.88;;;-0.26;100.00
41254;BME280;26987;59.928;30.306;2023-02-13T02:53:32;101007.91;;;-0.22;100.00
41254;BME280;26987;59.928;30.306;2023-02-13T02:56:10;101006.13;;;-0.21;100.00
41254;BME280;26987;59.928;30.306;2023-02-13T02:58:44;100975.06;;;-0.39;100.00
41254;BME280;26987;59.928;30.306;2023-02-13T03:01:33;101005.88;;;-0.18;100.00
41254;BME280;26987;59.928;30.306;2023-02-13T03:04:23;100997.81;;;-0.17;100.00
41254;BME280;26987;59.928;30.306;2023-02-13T03:07:12;100920.56;;;-0.60;100.00
41254;BME280;26987;59.928;30.306;2023-02-13T03:09:44;100977.81;;;-0.19;100.00
41254;BME280;26987;59.928;30.306;2023-02-13T03:12:35;100974.50;;;-0.21;100.00
41254;BME280;26987;59.928;30.306;2023-02-13T03:15:22;100965.28;;;-0.27;100.00
41254;BME280;26987;59.928;30.306;2023-02-13T03:17:50;100975.69;;;-0.26;100.00
41254;BME280;26987;59.928;30.306;2023-02-13T03:20:55;100980.31;;;-0.18;100.00
41254;BME280;26987;59.928;30.306;2023-02-13T03:23:49;100976.75;;;-0.17;100.00
41254;BME280;26987;59.928;30.306;2023-02-13T03:26:45;100966.75;;;-0.13;100.00
41254;BME280;26987;59.928;30.306;2023-02-13T03:29:28;100948.94;;;-0.21;100.00
41254;BME280;26987;59.928;30.306;2023-02-13T03:32:21;100950.25;;;-0.15;100.00
41254;BME280;26987;59.928;30.306;2023-02-13T03:35:00;100945.91;;;-0.16;100.00
41254;BME280;26987;59.928;30.306;2023-02-13T03:37:56;100905.88;;;-0.31;100.00
41254;BME280;26987;59.928;30.306;2023-02-13T03:40:35;100879.44;;;-0.51;100.00
41254;BME280;26987;59.928;30.306;2023-02-13T03:43:30;100931.78;;;-0.15;100.00
41254;BME280;26987;59.928;30.306;2023-02-13T03:46:00;100932.59;;;-0.15;100.00
41254;BME280;26987;59.928;30.306;2023-02-13T03:48:31;100922.56;;;-0.31;100.00
41254;BME280;26987;59.928;30.306;2023-02-13T03:51:23;100942.91;;;-0.11;100.00
41254;BME280;26987;59.928;30.306;2023-02-13T03:53:56;100953.56;;;-0.13;100.00
41254;BME280;26987;59.928;30.306;2023-02-13T03:56:28;100959.69;;;-0.13;100.00
41254;BME280;26987;59.928;30.306;2023-02-13T03:59:20;100950.41;;;-0.07;100.00
41254;BME280;26987;59.928;30.306;2023-02-13T04:02:00;100944.28;;;-0.07;100.00
41254;BME280;26987;59.928;30.306;2023-02-13T04:04:38;100946.16;;;0.02;100.00
41254;BME280;26987;59.928;30.306;2023-02-13T04:07:11;100916.25;;;-0.18;100.00
41254;BME280;26987;59.928;30.306;2023-02-13T04:09:57;100936.13;;;-0.04;100.00
41254;BME280;26987;59.928;30.306;2023-02-13T04:12:34;100925.50;;;0.07;100.00
41254;BME280;26987;59.928;30.306;2023-02-13T04:15:08;100918.13;;;0.01;100.00
41254;BME280;26987;59.928;30.306;2023-02-13T04:17:43;100905.75;;;0.02;100.00
41254;BME280;26987;59.928;30.306;2023-02-13T04:20:13;100897.28;;;-0.02;100.00
41254;BME280;26987;59.928;30.306;2023-02-13T04:22:42;100903.13;;;0.02;100.00
41254;BME280;26987;59.928;30.306;2023-02-13T04:25:13;100906.59;;;0.02;100.00
41254;BME280;26987;59.928;30.306;2023-02-13T04:27:42;100917.84;;;0.04;100.00
41254;BME280;26987;59.928;30.306;2023-02-13T04:30:11;100915.22;;;0.04;100.00
41254;BME280;26987;59.928;30.306;2023-02-13T04:32:39;100903.69;;;0.05;100.00
41254;BME280;26987;59.928;30.306;2023-02-13T04:35:07;100890.66;;;0.04;100.00
41254;BME280;26987;59.928;30.306;2023-02-13T04:37:36;100896.75;;;0.04;100.00
41254;BME280;26987;59.928;30.306;2023-02-13T04:40:05;100908.97;;;0.05;100.00
41254;BME280;26987;59.928;30.306;2023-02-13T04:42:35;100898.56;;;0.04;100.00
41254;BME280;26987;59.928;30.306;2023-02-13T04:45:03;100907.31;;;0.04;100.00
41254;BME280;26987;59.928;30.306;2023-02-13T04:47:31;100906.72;;;0.01;100.00
41254;BME280;26987;59.928;30.306;2023-02-13T04:49:59;100911.19;;;0.00;100.00
41254;BME280;26987;59.928;30.306;2023-02-13T04:52:27;100914.09;;;-0.03;100.00
41254;BME280;26987;59.928;30.306;2023-02-13T04:54:55;100924.66;;;0.07;100.00
41254;BME280;26987;59.928;30.306;2023-02-13T04:57:23;100916.88;;;0.05;100.00
41254;BME280;26987;59.928;30.306;2023-02-13T04:59:52;100927.88;;;0.10;100.00
41254;BME280;26987;59.928;30.306;2023-02-13T05:02:20;100923.16;;;0.14;100.00
41254;BME280;26987;59.928;30.306;2023-02-13T05:04:48;100918.28;;;0.09;100.00
41254;BME280;26987;59.928;30.306;2023-02-13T05:07:15;100912.47;;;0.16;100.00
41254;BME280;26987;59.928;30.306;2023-02-13T05:09:43;100917.47;;;0.19;100.00
41254;BME280;26987;59.928;30.306;2023-02-13T05:12:11;100923.59;;;0.19;100.00
41254;BME280;26987;59.928;30.306;2023-02-13T05:14:39;100915.56;;;0.21;100.00
41254;BME280;26987;59.928;30.306;2023-02-13T05:17:08;100896.91;;;0.12;100.00
41254;BME280;26987;59.928;30.306;2023-02-13T05:19:36;100914.44;;;0.23;100.00
41254;BME280;26987;59.928;30.306;2023-02-13T05:22:04;100896.97;;;0.22;100.00
41254;BME280;26987;59.928;30.306;2023-02-13T05:24:54;100909.44;;;0.20;100.00
41254;BME280;26987;59.928;30.306;2023-02-13T05:27:22;100910.00;;;0.24;100.00
41254;BME280;26987;59.928;30.306;2023-02-13T05:29:50;100902.38;;;0.21;100.00
41254;BME280;26987;59.928;30.306;2023-02-13T05:32:19;100886.53;;;0.21;100.00
41254;BME280;26987;59.928;30.306;2023-02-13T05:34:47;100882.22;;;0.20;100.00
41254;BME280;26987;59.928;30.306;2023-02-13T05:37:15;100877.06;;;0.18;100.00
41254;BME280;26987;59.928;30.306;2023-02-13T05:39:43;100871.94;;;0.17;100.00
41254;BME280;26987;59.928;30.306;2023-02-13T05:42:11;100887.22;;;0.13;100.00
41254;BME280;26987;59.928;30.306;2023-02-13T05:44:38;100893.72;;;0.09;100.00
41254;BME280;26987;59.928;30.306;2023-02-13T05:47:06;100897.31;;;0.08;100.00
41254;BME280;26987;59.928;30.306;2023-02-13T05:49:35;100884.94;;;-0.02;100.00
41254;BME280;26987;59.928;30.306;2023-02-13T05:52:03;100890.09;;;0.00;100.00
41254;BME280;26987;59.928;30.306;2023-02-13T05:54:31;100897.16;;;-0.01;100.00
41254;BME280;26987;59.928;30.306;2023-02-13T05:56:59;100901.59;;;-0.01;100.00
41254;BME280;26987;59.928;30.306;2023-02-13T05:59:27;100901.03;;;-0.05;100.00
41254;BME280;26987;59.928;30.306;2023-02-13T06:01:55;100885.34;;;-0.06;100.00
41254;BME280;26987;59.928;30.306;2023-02-13T06:04:23;100890.50;;;-0.05;100.00
41254;BME280;26987;59.928;30.306;2023-02-13T06:06:52;100895.91;;;0.04;100.00
41254;BME280;26987;59.928;30.306;2023-02-13T06:09:20;100891.47;;;0.04;100.00
41254;BME280;26987;59.928;30.306;2023-02-13T06:11:48;100882.47;;;0.07;100.00
41254;BME280;26987;59.928;30.306;2023-02-13T06:14:16;100889.84;;;0.13;100.00
41254;BME280;26987;59.928;30.306;2023-02-13T06:16:43;100895.81;;;0.15;100.00
41254;BME280;26987;59.928;30.306;2023-02-13T06:19:11;100884.84;;;0.20;100.00
41254;BME280;26987;59.928;30.306;2023-02-13T06:21:39;100887.50;;;0.20;100.00
41254;BME280;26987;59.928;30.306;2023-02-13T06:24:08;100886.13;;;0.26;100.00
41254;BME280;26987;59.928;30.306;2023-02-13T06:26:36;100890.31;;;0.28;100.00
41254;BME280;26987;59.928;30.306;2023-02-13T06:29:04;100887.25;;;0.33;100.00
41254;BME280;26987;59.928;30.306;2023-02-13T06:31:34;100785.09;;;-0.26;100.00
41254;BME280;26987;59.928;30.306;2023-02-13T06:34:01;100873.53;;;0.39;100.00
41254;BME280;26987;59.928;30.306;2023-02-13T06:36:29;100877.69;;;0.42;100.00
41254;BME280;26987;59.928;30.306;2023-02-13T06:38:57;100853.66;;;0.35;100.00
41254;BME280;26987;59.928;30.306;2023-02-13T06:41:27;100860.34;;;0.49;100.00
41254;BME280;26987;59.928;30.306;2023-02-13T06:43:54;100846.72;;;0.44;100.00
41254;BME280;26987;59.928;30.306;2023-02-13T06:46:22;100854.38;;;0.57;100.00
41254;BME280;26987;59.928;30.306;2023-02-13T06:48:50;100852.00;;;0.63;100.00
41254;BME280;26987;59.928;30.306;2023-02-13T06:51:18;100845.63;;;0.66;100.00
41254;BME280;26987;59.928;30.306;2023-02-13T06:53:46;100845.19;;;0.71;100.00
41254;BME280;26987;59.928;30.306;2023-02-13T06:56:13;100830.34;;;0.70;100.00
41254;BME280;26987;59.928;30.306;2023-02-13T06:58:43;100830.34;;;0.70;100.00
41254;BME280;26987;59.928;30.306;2023-02-13T07:01:12;100837.44;;;0.79;100.00
41254;BME280;26987;59.928;30.306;2023-02-13T07:03:39;100831.88;;;0.82;100.00
41254;BME280;26987;59.928;30.306;2023-02-13T07:06:07;100827.69;;;0.90;100.00
41254;BME280;26987;59.928;30.306;2023-02-13T07:08:35;100827.28;;;0.94;100.00
41254;BME280;26987;59.928;30.306;2023-02-13T07:11:03;100829.06;;;0.94;100.00
41254;BME280;26987;59.928;30.306;2023-02-13T07:13:31;100825.19;;;0.98;100.00
41254;BME280;26987;59.928;30.306;2023-02-13T07:16:01;100817.09;;;0.99;100.00
41254;BME280;26987;59.928;30.306;2023-02-13T07:18:28;100818.75;;;1.10;100.00
41254;BME280;26987;59.928;30.306;2023-02-13T07:20:57;100819.19;;;1.16;100.00
41254;BME280;26987;59.928;30.306;2023-02-13T07:23:25;100822.91;;;1.23;100.00
41254;BME280;26987;59.928;30.306;2023-02-13T07:25:52;100818.00;;;1.28;100.00
41254;BME280;26987;59.928;30.306;2023-02-13T07:28:20;100788.00;;;1.29;100.00
41254;BME280;26987;59.928;30.306;2023-02-13T07:30:48;100800.44;;;1.47;100.00
41254;BME280;26987;59.928;30.306;2023-02-13T07:33:17;100800.84;;;1.52;100.00
41254;BME280;26987;59.928;30.306;2023-02-13T07:35:46;100795.94;;;1.57;99.81
41254;BME280;26987;59.928;30.306;2023-02-13T07:38:14;100779.78;;;1.60;99.27
41254;BME280;26987;59.928;30.306;2023-02-13T07:40:42;100780.78;;;1.59;99.64
41254;BME280;26987;59.928;30.306;2023-02-13T07:43:11;100746.50;;;1.40;99.33
41254;BME280;26987;59.928;30.306;2023-02-13T07:45:40;100750.91;;;1.49;99.66
41254;BME280;26987;59.928;30.306;2023-02-13T07:48:08;100751.13;;;1.66;99.56
41254;BME280;26987;59.928;30.306;2023-02-13T07:50:37;100750.78;;;1.69;99.28
41254;BME280;26987;59.928;30.306;2023-02-13T07:53:05;100751.78;;;1.68;99.12
41254;BME280;26987;59.928;30.306;2023-02-13T07:55:33;100742.34;;;1.65;99.58
41254;BME280;26987;59.928;30.306;2023-02-13T07:58:01;100730.25;;;1.62;99.77
41254;BME280;26987;59.928;30.306;2023-02-13T08:00:28;100727.47;;;1.64;99.56
41254;BME280;26987;59.928;30.306;2023-02-13T08:02:58;100735.09;;;1.67;99.88
41254;BME280;26987;59.928;30.306;2023-02-13T08:05:26;100738.13;;;1.72;99.39
41254;BME280;26987;59.928;30.306;2023-02-13T08:07:55;100734.88;;;1.79;98.80
41254;BME280;26987;59.928;30.306;2023-02-13T08:10:23;100734.00;;;1.88;99.22
41254;BME280;26987;59.928;30.306;2023-02-13T08:13:08;100744.81;;;1.95;98.43
41254;BME280;26987;59.928;30.306;2023-02-13T08:15:38;100732.28;;;1.97;98.45
41254;BME280;26987;59.928;30.306;2023-02-13T08:18:06;100726.38;;;2.03;98.08
41254;BME280;26987;59.928;30.306;2023-02-13T08:20:34;100715.03;;;2.11;97.97
41254;BME280;26987;59.928;30.306;2023-02-13T08:23:04;100713.59;;;2.17;96.99
41254;BME280;26987;59.928;30.306;2023-02-13T08:25:32;100717.59;;;2.21;96.81
41254;BME280;26987;59.928;30.306;2023-02-13T08:28:00;100705.06;;;2.23;96.18
41254;BME280;26987;59.928;30.306;2023-02-13T08:30:28;100720.00;;;2.32;95.94
41254;BME280;26987;59.928;30.306;2023-02-13T08:32:56;100703.16;;;2.33;96.19
41254;BME280;26987;59.928;30.306;2023-02-13T08:35:24;100714.94;;;2.39;95.46
41254;BME280;26987;59.928;30.306;2023-02-13T08:37:55;100717.63;;;2.47;95.12
41254;BME280;26987;59.928;30.306;2023-02-13T08:40:24;100719.84;;;2.52;95.46
41254;BME280;26987;59.928;30.306;2023-02-13T08:42:52;100732.59;;;2.57;94.99
41254;BME280;26987;59.928;30.306;2023-02-13T08:45:25;100723.97;;;2.55;93.91
41254;BME280;26987;59.928;30.306;2023-02-13T08:47:55;100697.47;;;2.46;95.09
41254;BME280;26987;59.928;30.306;2023-02-13T08:50:23;100693.97;;;2.46;94.78
41254;BME280;26987;59.928;30.306;2023-02-13T08:52:51;100693.34;;;2.52;94.53
41254;BME280;26987;59.928;30.306;2023-02-13T08:55:19;100687.34;;;2.42;94.55
41254;BME280;26987;59.928;30.306;2023-02-13T08:57:48;100664.22;;;2.25;95.04
41254;BME280;26987;59.928;30.306;2023-02-13T09:00:16;100693.66;;;2.49;95.13
41254;BME280;26987;59.928;30.306;2023-02-13T09:02:44;100691.72;;;2.51;94.93
41254;BME280;26987;59.928;30.306;2023-02-13T09:05:12;100693.28;;;2.62;94.70
41254;BME280;26987;59.928;30.306;2023-02-13T09:07:40;100684.88;;;2.67;94.33
41254;BME280;26987;59.928;30.306;2023-02-13T09:10:08;100693.47;;;2.69;94.37
41254;BME280;26987;59.928;30.306;2023-02-13T09:12:37;100682.38;;;2.65;93.74
41254;BME280;26987;59.928;30.306;2023-02-13T09:15:07;100673.75;;;2.63;93.65
41254;BME280;26987;59.928;30.306;2023-02-13T09:17:35;100662.63;;;2.59;94.60
41254;BME280;26987;59.928;30.306;2023-02-13T09:20:03;100655.25;;;2.45;94.17
41254;BME280;26987;59.928;30.306;2023-02-13T09:22:31;100670.94;;;2.64;94.34
41254;BME280;26987;59.928;30.306;2023-02-13T09:24:59;100667.22;;;2.75;93.45
41254;BME280;26987;59.928;30.306;2023-02-13T09:27:29;100614.94;;;2.51;93.07
41254;BME280;26987;59.928;30.306;2023-02-13T09:29:57;100653.16;;;2.83;92.50
41254;BME280;26987;59.928;30.306;2023-02-13T09:32:27;100659.16;;;2.85;92.60
41254;BME280;26987;59.928;30.306;2023-02-13T09:34:55;100658.63;;;2.82;92.18
41254;BME280;26987;59.928;30.306;2023-02-13T09:37:23;100653.50;;;2.80;92.91
41254;BME280;26987;59.928;30.306;2023-02-13T09:39:50;100653.97;;;2.75;92.76
41254;BME280;26987;59.928;30.306;2023-02-13T09:42:20;100653.75;;;2.69;92.75
41254;BME280;26987;59.928;30.306;2023-02-13T09:44:50;100645.81;;;2.69;93.06
41254;BME280;26987;59.928;30.306;2023-02-13T09:47:28;100641.19;;;2.71;93.81
41254;BME280;26987;59.928;30.306;2023-02-13T09:50:02;100640.03;;;2.65;93.88
41254;BME280;26987;59.928;30.306;2023-02-13T09:52:33;100635.97;;;2.52;94.04
41254;BME280;26987;59.928;30.306;2023-02-13T09:55:02;100639.50;;;2.61;93.81
41254;BME280;26987;59.928;30.306;2023-02-13T09:57:33;100608.63;;;2.44;94.29
41254;BME280;26987;59.928;30.306;2023-02-13T10:00:06;100617.94;;;2.56;94.32
41254;BME280;26987;59.928;30.306;2023-02-13T10:02:52;100631.91;;;2.67;94.37
41254;BME280;26987;59.928;30.306;2023-02-13T10:05:36;100621.78;;;2.62;93.56
41254;BME280;26987;59.928;30.306;2023-02-13T10:08:16;100627.25;;;2.60;93.94
41254;BME280;26987;59.928;30.306;2023-02-13T10:10:52;100617.63;;;2.59;94.41
41254;BME280;26987;59.928;30.306;2023-02-13T10:13:30;100621.72;;;2.54;94.38
41254;BME280;26987;59.928;30.306;2023-02-13T10:16:06;100604.97;;;2.45;94.75
41254;BME280;26987;59.928;30.306;2023-02-13T10:18:44;100606.63;;;2.46;95.07
41254;BME280;26987;59.928;30.306;2023-02-13T10:21:14;100612.53;;;2.39;95.33
41254;BME280;26987;59.928;30.306;2023-02-13T10:23:50;100618.97;;;2.37;96.16
41254;BME280;26987;59.928;30.306;2023-02-13T10:26:22;100617.50;;;2.34;96.07
41254;BME280;26987;59.928;30.306;2023-02-13T10:28:57;100621.94;;;2.34;96.23
41254;BME280;26987;59.928;30.306;2023-02-13T10:31:55;100617.94;;;2.30;95.61
41254;BME280;26987;59.928;30.306;2023-02-13T10:34:33;100585.31;;;2.21;96.32
41254;BME280;26987;59.928;30.306;2023-02-13T10:37:02;100595.16;;;2.10;96.50
41254;BME280;26987;59.928;30.306;2023-02-13T10:39:32;100603.59;;;2.14;96.55
41254;BME280;26987;59.928;30.306;2023-02-13T10:42:03;100588.84;;;2.03;97.71
41254;BME280;26987;59.928;30.306;2023-02-13T10:44:45;100584.63;;;1.92;97.43
41254;BME280;26987;59.928;30.306;2023-02-13T10:47:31;100607.41;;;2.11;97.17
41254;BME280;26987;59.928;30.306;2023-02-13T10:50:16;100604.13;;;2.18;97.69
41254;BME280;26987;59.928;30.306;2023-02-13T10:52:52;100595.44;;;2.25;97.47
41254;BME280;26987;59.928;30.306;2023-02-13T10:55:40;100586.72;;;2.33;97.26
41254;BME280;26987;59.928;30.306;2023-02-13T10:58:17;100594.34;;;2.36;97.11
41254;BME280;26987;59.928;30.306;2023-02-13T11:00:48;100580.91;;;2.30;96.86
41254;BME280;26987;59.928;30.306;2023-02-13T11:03:22;100569.72;;;2.44;96.26
41254;BME280;26987;59.928;30.306;2023-02-13T11:05:53;100576.88;;;2.52;96.33
41254;BME280;26987;59.928;30.306;2023-02-13T11:08:23;100542.38;;;2.35;95.37
41254;BME280;26987;59.928;30.306;2023-02-13T11:10:52;100531.16;;;2.33;95.34
41254;BME280;26987;59.928;30.306;2023-02-13T11:13:21;100572.13;;;2.56;95.63
41254;BME280;26987;59.928;30.306;2023-02-13T11:16:01;100569.03;;;2.69;95.62
41254;BME280;26987;59.928;30.306;2023-02-13T11:18:31;100570.84;;;2.68;94.68
41254;BME280;26987;59.928;30.306;2023-02-13T11:21:05;100528.75;;;2.48;94.85
41254;BME280;26987;59.928;30.306;2023-02-13T11:23:37;100572.63;;;2.59;94.49
41254;BME280;26987;59.928;30.306;2023-02-13T11:26:09;100570.28;;;2.56;94.72
41254;BME280;26987;59.928;30.306;2023-02-13T11:28:46;100567.13;;;2.52;95.32
41254;BME280;26987;59.928;30.306;2023-02-13T11:31:21;100556.34;;;2.46;95.54
41254;BME280;26987;59.928;30.306;2023-02-13T11:33:50;100524.63;;;2.19;95.24
41254;BME280;26987;59.928;30.306;2023-02-13T11:36:25;100550.31;;;2.35;95.96
41254;BME280;26987;59.928;30.306;2023-02-13T11:39:01;100555.59;;;2.27;96.89
41254;BME280;26987;59.928;30.306;2023-02-13T11:41:31;100535.25;;;2.01;96.55
41254;BME280;26987;59.928;30.306;2023-02-13T11:44:03;100575.34;;;2.14;97.60
41254;BME280;26987;59.928;30.306;2023-02-13T11:46:44;100563.47;;;2.19;97.83
41254;BME280;26987;59.928;30.306;2023-02-13T11:49:18;100570.75;;;2.17;97.39
41254;BME280;26987;59.928;30.306;2023-02-13T11:51:49;100567.41;;;2.14;96.80
41254;BME280;26987;59.928;30.306;2023-02-13T11:54:28;100577.84;;;2.16;97.31
41254;BME280;26987;59.928;30.306;2023-02-13T11:56:58;100568.50;;;2.04;97.72
41254;BME280;26987;59.928;30.306;2023-02-13T11:59:30;100570.66;;;2.08;97.66
41254;BME280;26987;59.928;30.306;2023-02-13T12:02:14;100561.09;;;2.07;98.33
41254;BME280;26987;59.928;30.306;2023-02-13T12:04:43;100556.06;;;1.96;98.50
41254;BME280;26987;59.928;30.306;2023-02-13T12:07:30;100556.56;;;1.99;98.65
41254;BME280;26987;59.928;30.306;2023-02-13T12:10:02;100558.31;;;1.91;98.96
41254;BME280;26987;59.928;30.306;2023-02-13T12:12:39;100552.81;;;1.84;98.73
41254;BME280;26987;59.928;30.306;2023-02-13T12:15:15;100572.16;;;1.84;100.00
41254;BME280;26987;59.928;30.306;2023-02-13T12:17:46;100566.50;;;1.79;99.95
41254;BME280;26987;59.928;30.306;2023-02-13T12:20:16;100560.16;;;1.72;99.02
41254;BME280;26987;59.928;30.306;2023-02-13T12:22:58;100576.78;;;1.82;99.89
41254;BME280;26987;59.928;30.306;2023-02-13T12:25:44;100567.16;;;1.81;100.00
41254;BME280;26987;59.928;30.306;2023-02-13T12:28:17;100564.16;;;1.76;99.50
41254;BME280;26987;59.928;30.306;2023-02-13T12:31:00;100570.41;;;1.75;100.00
41254;BME280;26987;59.928;30.306;2023-02-13T12:33:45;100570.72;;;1.72;100.00
41254;BME280;26987;59.928;30.306;2023-02-13T12:36:18;100559.41;;;1.61;100.00
41254;BME280;26987;59.928;30.306;2023-02-13T12:39:05;100571.56;;;1.72;100.00
41254;BME280;26987;59.928;30.306;2023-02-13T12:41:45;100572.31;;;1.64;100.00
41254;BME280;26987;59.928;30.306;2023-02-13T12:44:30;100566.22;;;1.64;100.00
41254;BME280;26987;59.928;30.306;2023-02-13T12:47:07;100568.31;;;1.60;100.00
41254;BME280;26987;59.928;30.306;2023-02-13T12:52:50;100561.59;;;1.48;100.00
41254;BME280;26987;59.928;30.306;2023-02-13T12:55:31;100540.00;;;1.34;100.00
41254;BME280;26987;59.928;30.306;2023-02-13T12:58:16;100569.22;;;1.51;100.00
41254;BME280;26987;59.928;30.306;2023-02-13T13:00:52;100584.19;;;1.60;100.00
41254;BME280;26987;59.928;30.306;2023-02-13T13:03:38;100582.69;;;1.58;100.00
41254;BME280;26987;59.928;30.306;2023-02-13T13:06:21;100509.53;;;1.04;100.00
41254;BME280;26987;59.928;30.306;2023-02-13T13:12:29;100570.13;;;1.42;100.00
41254;BME280;26987;59.928;30.306;2023-02-13T13:15:07;100561.97;;;1.17;100.00